createdAt,value
2019-03-25T00:03:27.737Z,19.52
2019-03-25T00:08:31.643Z,21.50
2019-03-25T00:13:35.443Z,20.00
2019-03-25T00:18:39.460Z,28.52
2019-03-25T00:23:43.554Z,27.27
2019-03-25T00:28:47.329Z,25.77
2019-03-25T00:33:51.096Z,23.22
2019-03-25T00:38:54.880Z,21.70
2019-03-25T00:43:58.713Z,20.77
2019-03-25T00:49:02.486Z,19.10
2019-03-25T00:54:06.275Z,11.57
2019-03-25T00:59:10.042Z,13.03
2019-03-25T01:04:14.833Z,11.00
2019-03-25T01:09:18.627Z,13.93
2019-03-25T01:14:22.532Z,11.28
2019-03-25T01:19:26.287Z,11.63
2019-03-25T01:24:30.098Z,11.28
2019-03-25T01:29:33.967Z,10.45
2019-03-25T01:34:37.937Z,9.55
2019-03-25T01:39:41.684Z,10.50
2019-03-25T01:44:45.485Z,12.47
2019-03-25T01:49:49.288Z,10.82
2019-03-25T01:54:53.113Z,10.80
2019-03-25T01:59:57.118Z,9.40
2019-03-25T02:05:00.903Z,9.40
2019-03-25T02:10:06.123Z,13.58
2019-03-25T02:15:10.590Z,13.08
2019-03-25T02:20:25.538Z,11.18
2019-03-25T02:25:25.454Z,12.37
2019-03-25T02:30:25.924Z,12.30
2019-03-25T02:35:29.750Z,13.28
2019-03-25T02:40:33.898Z,13.93
2019-03-25T02:45:37.927Z,12.47
2019-03-25T02:50:41.703Z,11.70
2019-03-25T02:55:45.650Z,13.18
2019-03-25T03:00:49.421Z,14.03
2019-03-25T03:05:53.228Z,14.28
2019-03-25T03:10:56.994Z,21.55
2019-03-25T03:16:00.738Z,20.40
2019-03-25T03:21:04.487Z,18.92
2019-03-25T03:26:08.270Z,25.92
2019-03-25T03:31:12.058Z,23.40
2019-03-25T03:36:16.052Z,26.87
2019-03-25T03:41:19.850Z,28.27
2019-03-25T03:46:23.696Z,22.22
2019-03-25T03:51:27.536Z,22.93
2019-03-25T03:56:32.367Z,17.92
2019-03-25T04:01:36.089Z,22.48
2019-03-25T04:06:39.985Z,22.87
2019-03-25T04:11:43.766Z,24.82
2019-03-25T04:16:47.502Z,20.37
2019-03-25T04:21:51.655Z,20.37
2019-03-25T04:26:55.478Z,24.52
2019-03-25T04:31:59.256Z,19.73
2019-03-25T04:37:03.053Z,20.45
2019-03-25T04:42:06.844Z,23.35
2019-03-25T04:47:11.179Z,24.75
2019-03-25T04:52:14.913Z,24.77
2019-03-25T04:57:18.739Z,25.30
2019-03-25T05:02:22.549Z,27.67
2019-03-25T05:07:26.538Z,25.77
2019-03-25T05:12:30.709Z,24.34
2019-03-25T05:17:34.488Z,26.60
2019-03-25T05:22:38.422Z,27.93
2019-03-25T05:27:42.163Z,32.05
2019-03-25T05:32:45.912Z,34.00
2019-03-25T05:37:49.726Z,35.08
2019-03-25T05:42:54.072Z,33.08
2019-03-25T05:47:57.973Z,31.27
2019-03-25T05:53:01.767Z,36.98
2019-03-25T05:58:05.623Z,36.55
2019-03-25T06:03:09.376Z,33.88
2019-03-25T06:08:13.393Z,33.92
2019-03-25T06:13:17.235Z,33.13
2019-03-25T06:18:21.014Z,32.78
2019-03-25T06:23:24.976Z,31.15
2019-03-25T06:28:28.786Z,32.42
2019-03-25T06:33:32.758Z,39.20
2019-03-25T06:38:36.524Z,37.15
2019-03-25T06:43:40.314Z,34.90
2019-03-25T06:48:44.098Z,33.45
2019-03-25T06:53:47.921Z,33.58
2019-03-25T06:58:51.766Z,36.40
2019-03-25T07:03:55.866Z,25.37
2019-03-25T07:08:59.802Z,30.02
2019-03-25T07:14:03.900Z,36.98
2019-03-25T07:19:07.786Z,31.97
2019-03-25T07:24:11.639Z,33.98
2019-03-25T07:29:15.420Z,35.95
2019-03-25T07:34:19.306Z,37.05
2019-03-25T07:39:23.055Z,24.12
2019-03-25T07:44:26.831Z,25.77
2019-03-25T07:49:30.590Z,18.77
2019-03-25T07:54:34.649Z,22.35
2019-03-25T07:59:38.600Z,27.42
2019-03-25T08:04:42.508Z,24.23
2019-03-25T08:09:46.778Z,24.65
2019-03-25T08:14:50.792Z,28.77
2019-03-25T08:19:54.652Z,28.45
2019-03-25T08:24:58.421Z,17.73
2019-03-25T08:30:02.201Z,17.60
2019-03-25T08:35:06.534Z,17.12
2019-03-25T08:40:11.137Z,22.27
2019-03-25T08:45:15.258Z,17.92
2019-03-25T08:50:19.105Z,13.93
2019-03-25T08:55:22.873Z,16.62
2019-03-25T09:00:26.683Z,16.90
2019-03-25T09:05:30.410Z,11.55
2019-03-25T09:10:34.185Z,16.17
2019-03-25T09:15:37.951Z,14.90
2019-03-25T09:20:41.928Z,14.25
2019-03-25T09:25:45.670Z,18.02
2019-03-25T09:31:19.951Z,18.05
2019-03-25T09:36:24.505Z,22.55
2019-03-25T09:41:28.346Z,22.22
2019-03-25T09:46:32.134Z,13.22
2019-03-25T09:51:35.965Z,18.40
2019-03-25T09:56:39.729Z,12.03
2019-03-25T10:01:43.902Z,23.27
2019-03-25T10:06:48.120Z,15.85
2019-03-25T10:11:51.913Z,15.95
2019-03-25T10:16:55.701Z,12.50
2019-03-25T10:21:59.568Z,10.43
2019-03-25T10:27:03.492Z,14.50
2019-03-25T10:32:07.605Z,15.60
2019-03-25T10:37:11.605Z,16.50
2019-03-25T10:42:15.340Z,19.55
2019-03-25T10:47:19.114Z,16.93
2019-03-25T10:52:22.893Z,15.95
2019-03-25T10:57:26.724Z,9.80
2019-03-25T11:02:30.494Z,13.60
2019-03-25T11:07:34.451Z,13.32
2019-03-25T11:12:38.393Z,13.15
2019-03-25T11:17:42.643Z,13.93
2019-03-25T11:22:46.518Z,14.13
2019-03-25T11:27:54.421Z,20.85
2019-03-25T11:32:56.014Z,12.23
2019-03-25T11:37:59.807Z,19.60
2019-03-25T11:43:03.605Z,18.67
2019-03-25T11:48:07.371Z,12.82
2019-03-25T11:53:11.226Z,14.98
2019-03-25T11:58:15.015Z,12.95
2019-03-25T12:03:18.994Z,15.30
2019-03-25T12:08:22.787Z,14.65
2019-03-25T12:13:26.714Z,15.30
2019-03-25T12:18:30.526Z,20.50
2019-03-25T12:23:34.449Z,11.35
2019-03-25T12:28:38.591Z,16.02
2019-03-25T12:33:42.863Z,12.85
2019-03-25T12:38:46.626Z,13.25
2019-03-25T12:43:50.453Z,15.10
2019-03-25T12:48:54.337Z,13.45
2019-03-25T12:53:58.219Z,19.67
2019-03-25T12:59:03.031Z,21.10
2019-03-25T13:04:07.158Z,20.48
2019-03-25T13:09:10.953Z,17.65
2019-03-25T13:14:14.813Z,10.90
2019-03-25T13:19:18.740Z,16.02
2019-03-25T13:24:22.551Z,10.55
2019-03-25T13:29:26.324Z,8.48
2019-03-25T13:34:30.560Z,9.45
2019-03-25T13:39:34.384Z,8.53
2019-03-25T13:44:38.311Z,9.23
2019-03-25T13:49:42.744Z,8.88
2019-03-25T13:54:46.578Z,6.17
2019-03-25T13:59:50.446Z,8.15
2019-03-25T14:04:54.333Z,8.40
2019-03-25T14:09:58.217Z,9.35
2019-03-25T14:15:02.199Z,7.42
2019-03-25T14:20:08.277Z,18.10
2019-03-25T14:25:12.152Z,11.13
2019-03-25T14:30:16.414Z,9.08
2019-03-25T14:35:20.226Z,14.58
2019-03-25T14:40:25.534Z,9.38
2019-03-25T14:45:29.716Z,9.90
2019-03-25T14:50:33.668Z,8.23
2019-03-25T14:55:37.438Z,14.20
2019-03-25T15:00:41.232Z,11.40
2019-03-25T15:05:45.222Z,9.08
2019-03-25T15:10:53.459Z,8.93
2019-03-25T15:15:54.786Z,17.37
2019-03-25T15:20:58.626Z,13.00
2019-03-25T15:26:02.365Z,13.32
2019-03-25T15:31:06.217Z,14.85
2019-03-25T15:36:09.971Z,15.25
2019-03-25T15:41:13.887Z,10.78
2019-03-25T15:46:17.646Z,17.30
2019-03-25T15:51:21.638Z,13.55
2019-03-25T15:56:25.494Z,12.63
2019-03-25T16:01:29.264Z,14.73
2019-03-25T16:06:33.110Z,13.20
2019-03-25T16:11:36.866Z,13.85
2019-03-25T16:16:40.628Z,10.88
2019-03-25T16:21:44.376Z,14.33
2019-03-25T16:26:48.144Z,12.43
2019-03-25T16:31:51.940Z,16.75
2019-03-25T16:36:55.742Z,16.23
2019-03-25T16:41:59.655Z,17.75
2019-03-25T16:47:03.513Z,15.28
2019-03-25T16:52:07.295Z,17.30
2019-03-25T16:57:11.117Z,23.32
2019-03-25T17:02:15.664Z,18.70
2019-03-25T17:07:19.984Z,11.93
2019-03-25T17:12:23.742Z,14.68
2019-03-25T17:17:27.653Z,15.63
2019-03-25T17:22:52.846Z,10.58
2019-03-25T17:27:57.297Z,8.58
2019-03-25T17:33:01.665Z,8.10
2019-03-25T17:38:05.567Z,9.50
2019-03-25T17:43:09.327Z,6.83
2019-03-25T17:48:13.206Z,9.58
2019-03-25T17:53:16.983Z,13.78
2019-03-25T17:58:20.789Z,10.50
2019-03-25T18:03:24.628Z,11.18
2019-03-25T18:08:28.477Z,12.33
2019-03-25T18:13:32.312Z,12.10
2019-03-25T18:18:36.070Z,10.25
2019-03-25T18:23:39.859Z,11.78
2019-03-25T18:28:43.681Z,11.48
2019-03-25T18:33:47.453Z,14.28
2019-03-25T18:38:51.318Z,12.18
2019-03-25T18:43:55.074Z,9.55
2019-03-25T18:48:58.958Z,10.68
2019-03-25T18:54:02.832Z,7.05
2019-03-25T18:59:06.612Z,7.70
2019-03-25T19:04:10.455Z,6.03
2019-03-25T19:09:14.251Z,6.55
2019-03-25T19:14:18.187Z,7.03
2019-03-25T19:19:21.978Z,7.25
2019-03-25T19:24:26.161Z,6.55
2019-03-25T19:29:29.998Z,5.42
2019-03-25T19:34:33.867Z,6.47
2019-03-25T19:39:37.690Z,5.37
2019-03-25T19:44:41.660Z,3.92
2019-03-25T19:49:45.652Z,7.45
2019-03-25T19:54:49.772Z,6.78
2019-03-25T19:59:53.586Z,4.62
2019-03-25T20:04:57.517Z,8.98
2019-03-25T20:10:01.335Z,4.30
2019-03-25T20:15:06.223Z,6.17
2019-03-25T20:20:10.321Z,10.53
2019-03-25T20:25:14.214Z,8.18
2019-03-25T20:30:18.661Z,8.17
2019-03-25T20:35:22.504Z,8.63
2019-03-25T20:40:26.398Z,8.58
2019-03-25T20:45:30.236Z,8.77
2019-03-25T20:50:34.226Z,10.93
2019-03-25T20:55:38.099Z,11.73
2019-03-25T21:00:55.838Z,7.50
2019-03-25T21:05:59.704Z,7.80
2019-03-25T21:11:03.712Z,5.25
2019-03-25T21:16:07.896Z,8.25
2019-03-25T21:21:11.876Z,5.17
2019-03-25T21:26:15.961Z,4.62
2019-03-25T21:31:19.916Z,7.80
2019-03-25T21:36:23.883Z,7.92
2019-03-25T21:41:27.826Z,6.78
2019-03-25T21:46:31.828Z,5.90
2019-03-25T21:51:35.744Z,7.78
2019-03-25T21:56:39.770Z,6.40
2019-03-25T22:01:43.702Z,6.83
2019-03-25T22:06:47.460Z,8.15
2019-03-25T22:11:52.288Z,6.70
2019-03-25T22:16:56.115Z,7.80
2019-03-25T22:21:59.984Z,6.08
2019-03-25T22:27:03.765Z,8.48
2019-03-25T22:32:07.946Z,7.95
2019-03-25T22:37:11.776Z,11.53
2019-03-25T22:42:15.580Z,11.97
2019-03-25T22:47:19.411Z,12.13
2019-03-25T22:52:23.342Z,8.35
2019-03-25T22:57:27.224Z,16.77
2019-03-25T23:02:31.539Z,9.43
2019-03-25T23:07:35.290Z,8.10
2019-03-25T23:12:39.163Z,13.20
2019-03-25T23:17:43.006Z,17.67
2019-03-25T23:22:46.761Z,21.73
2019-03-25T23:27:50.603Z,20.20
2019-03-25T23:32:54.444Z,14.25
2019-03-25T23:37:58.470Z,18.27
2019-03-25T23:43:02.269Z,23.18
2019-03-25T23:48:06.509Z,17.62
2019-03-25T23:53:10.268Z,15.23
2019-03-25T23:58:14.028Z,20.70
